sensor_id;sensor_type;location;lat;lon;timestamp;temperature;humidity
48488;DHT22;34289;48.572;13.378;2023-06-22T00:02:01;18.40;99.90
48488;DHT22;34289;48.572;13.378;2023-06-22T00:04:27;18.30;99.90
48488;DHT22;34289;48.572;13.378;2023-06-22T00:06:53;18.20;99.90
48488;DHT22;34289;48.572;13.378;2023-06-22T00:21:29;17.90;99.90
48488;DHT22;34289;48.572;13.378;2023-06-22T00:23:56;17.90;99.90
48488;DHT22;34289;48.572;13.378;2023-06-22T00:26:23;17.60;99.90
48488;DHT22;34289;48.572;13.378;2023-06-22T00:31:14;17.80;99.90
48488;DHT22;34289;48.572;13.378;2023-06-22T00:33:40;17.60;99.90
48488;DHT22;34289;48.572;13.378;2023-06-22T00:36:06;17.40;99.90
48488;DHT22;34289;48.572;13.378;2023-06-22T00:38:33;17.30;99.90
48488;DHT22;34289;48.572;13.378;2023-06-22T00:40:59;17.20;99.90
48488;DHT22;34289;48.572;13.378;2023-06-22T00:43:25;17.40;99.90
48488;DHT22;34289;48.572;13.378;2023-06-22T00:45:50;17.40;99.90
48488;DHT22;34289;48.572;13.378;2023-06-22T00:48:16;17.90;99.90
48488;DHT22;34289;48.572;13.378;2023-06-22T00:50:42;18.10;99.90
48488;DHT22;34289;48.572;13.378;2023-06-22T00:53:09;17.00;99.90
48488;DHT22;34289;48.572;13.378;2023-06-22T00:55:41;17.80;99.90
48488;DHT22;34289;48.572;13.378;2023-06-22T00:58:08;17.30;99.90
48488;DHT22;34289;48.572;13.378;2023-06-22T01:00:36;17.50;99.90
48488;DHT22;34289;48.572;13.378;2023-06-22T01:03:03;17.50;99.90
48488;DHT22;34289;48.572;13.378;2023-06-22T01:08:25;17.30;99.90
48488;DHT22;34289;48.572;13.378;2023-06-22T01:11:09;17.10;99.90
48488;DHT22;34289;48.572;13.378;2023-06-22T01:16:08;16.40;99.90
48488;DHT22;34289;48.572;13.378;2023-06-22T01:18:36;17.00;99.90
48488;DHT22;34289;48.572;13.378;2023-06-22T01:21:06;16.80;99.90
48488;DHT22;34289;48.572;13.378;2023-06-22T01:24:07;16.60;99.90
48488;DHT22;34289;48.572;13.378;2023-06-22T01:26:38;17.00;99.90
48488;DHT22;34289;48.572;13.378;2023-06-22T01:29:06;17.60;99.90
48488;DHT22;34289;48.572;13.378;2023-06-22T01:31:33;17.20;99.90
48488;DHT22;34289;48.572;13.378;2023-06-22T01:34:03;17.00;99.90
48488;DHT22;34289;48.572;13.378;2023-06-22T01:36:30;16.80;99.90
48488;DHT22;34289;48.572;13.378;2023-06-22T01:38:57;16.70;99.90
48488;DHT22;34289;48.572;13.378;2023-06-22T01:41:26;16.70;99.90
48488;DHT22;34289;48.572;13.378;2023-06-22T01:43:53;16.70;99.90
48488;DHT22;34289;48.572;13.378;2023-06-22T01:48:46;17.00;99.90
48488;DHT22;34289;48.572;13.378;2023-06-22T01:51:12;16.80;99.90
48488;DHT22;34289;48.572;13.378;2023-06-22T01:53:38;16.50;99.90
48488;DHT22;34289;48.572;13.378;2023-06-22T01:56:04;16.40;99.90
48488;DHT22;34289;48.572;13.378;2023-06-22T01:58:31;16.30;99.90
48488;DHT22;34289;48.572;13.378;2023-06-22T02:01:09;16.60;99.90
48488;DHT22;34289;48.572;13.378;2023-06-22T02:03:38;16.60;99.90
48488;DHT22;34289;48.572;13.378;2023-06-22T02:06:08;16.80;99.90
48488;DHT22;34289;48.572;13.378;2023-06-22T02:08:41;16.80;99.90
48488;DHT22;34289;48.572;13.378;2023-06-22T02:11:11;16.20;99.90
48488;DHT22;34289;48.572;13.378;2023-06-22T02:13:39;16.70;99.90
48488;DHT22;34289;48.572;13.378;2023-06-22T02:23:27;16.70;99.90
48488;DHT22;34289;48.572;13.378;2023-06-22T02:25:53;16.50;99.90
48488;DHT22;34289;48.572;13.378;2023-06-22T02:28:19;16.30;99.90
48488;DHT22;34289;48.572;13.378;2023-06-22T02:33:10;16.80;99.90
48488;DHT22;34289;48.572;13.378;2023-06-22T02:35:36;16.40;99.90
48488;DHT22;34289;48.572;13.378;2023-06-22T02:38:03;16.20;99.90
48488;DHT22;34289;48.572;13.378;2023-06-22T02:42:55;16.00;99.90
48488;DHT22;34289;48.572;13.378;2023-06-22T02:47:49;16.20;99.90
48488;DHT22;34289;48.572;13.378;2023-06-22T02:50:15;16.30;99.90
48488;DHT22;34289;48.572;13.378;2023-06-22T02:52:40;16.40;99.90
48488;DHT22;34289;48.572;13.378;2023-06-22T02:55:06;16.40;99.90
48488;DHT22;34289;48.572;13.378;2023-06-22T02:57:33;16.20;99.90
48488;DHT22;34289;48.572;13.378;2023-06-22T02:59:59;16.50;99.90
48488;DHT22;34289;48.572;13.378;2023-06-22T03:02:25;16.30;99.90
48488;DHT22;34289;48.572;13.378;2023-06-22T03:07:19;16.20;99.90
48488;DHT22;34289;48.572;13.378;2023-06-22T03:09:45;16.10;99.90
48488;DHT22;34289;48.572;13.378;2023-06-22T03:12:11;16.20;99.90
48488;DHT22;34289;48.572;13.378;2023-06-22T03:14:37;16.10;99.90
48488;DHT22;34289;48.572;13.378;2023-06-22T03:22:00;16.50;99.90
48488;DHT22;34289;48.572;13.378;2023-06-22T03:24:26;16.10;99.90
48488;DHT22;34289;48.572;13.378;2023-06-22T03:26:54;15.80;99.90
48488;DHT22;34289;48.572;13.378;2023-06-22T03:29:20;15.90;99.90
48488;DHT22;34289;48.572;13.378;2023-06-22T03:31:45;16.30;99.90
48488;DHT22;34289;48.572;13.378;2023-06-22T03:34:11;16.30;99.90
48488;DHT22;34289;48.572;13.378;2023-06-22T03:51:13;16.40;99.90
48488;DHT22;34289;48.572;13.378;2023-06-22T03:53:38;16.90;99.90
48488;DHT22;34289;48.572;13.378;2023-06-22T03:56:04;16.60;99.90
48488;DHT22;34289;48.572;13.378;2023-06-22T03:58:29;16.90;99.90
48488;DHT22;34289;48.572;13.378;2023-06-22T04:00:58;16.40;99.90
48488;DHT22;34289;48.572;13.378;2023-06-22T04:03:25;16.20;99.90
48488;DHT22;34289;48.572;13.378;2023-06-22T04:05:50;16.20;99.90
48488;DHT22;34289;48.572;13.378;2023-06-22T04:08:16;16.30;99.90
48488;DHT22;34289;48.572;13.378;2023-06-22T04:13:08;17.30;99.90
48488;DHT22;34289;48.572;13.378;2023-06-22T04:20:26;17.30;99.90
48488;DHT22;34289;48.572;13.378;2023-06-22T04:22:53;17.60;99.90
48488;DHT22;34289;48.572;13.378;2023-06-22T04:25:19;17.60;99.90
48488;DHT22;34289;48.572;13.378;2023-06-22T04:27:45;17.70;99.90
48488;DHT22;34289;48.572;13.378;2023-06-22T04:30:11;17.80;99.90
48488;DHT22;34289;48.572;13.378;2023-06-22T04:32:37;18.00;99.90
48488;DHT22;34289;48.572;13.378;2023-06-22T04:35:04;18.60;99.90
48488;DHT22;34289;48.572;13.378;2023-06-22T04:37:30;18.50;99.90
48488;DHT22;34289;48.572;13.378;2023-06-22T04:39:56;18.70;99.90
48488;DHT22;34289;48.572;13.378;2023-06-22T04:42:22;19.20;99.90
48488;DHT22;34289;48.572;13.378;2023-06-22T04:44:47;19.40;99.90
48488;DHT22;34289;48.572;13.378;2023-06-22T04:47:13;19.70;99.90
48488;DHT22;34289;48.572;13.378;2023-06-22T04:49:39;20.10;99.90
48488;DHT22;34289;48.572;13.378;2023-06-22T04:54:31;21.50;99.90
48488;DHT22;34289;48.572;13.378;2023-06-22T04:57:02;22.00;99.90
48488;DHT22;34289;48.572;13.378;2023-06-22T04:59:29;23.00;99.90
48488;DHT22;34289;48.572;13.378;2023-06-22T05:01:56;25.40;99.90
48488;DHT22;34289;48.572;13.378;2023-06-22T05:04:22;25.70;99.90
48488;DHT22;34289;48.572;13.378;2023-06-22T05:06:54;26.90;99.90
48488;DHT22;34289;48.572;13.378;2023-06-22T05:09:20;27.80;99.90
48488;DHT22;34289;48.572;13.378;2023-06-22T05:11:47;28.20;99.90
48488;DHT22;34289;48.572;13.378;2023-06-22T05:14:13;28.40;99.90
48488;DHT22;34289;48.572;13.378;2023-06-22T05:16:40;29.10;99.90
48488;DHT22;34289;48.572;13.378;2023-06-22T05:19:06;30.00;99.90
48488;DHT22;34289;48.572;13.378;2023-06-22T05:21:32;30.70;99.90
48488;DHT22;34289;48.572;13.378;2023-06-22T05:23:58;31.00;99.90
48488;DHT22;34289;48.572;13.378;2023-06-22T05:26:32;30.20;99.90
48488;DHT22;34289;48.572;13.378;2023-06-22T05:28:58;29.90;99.90
48488;DHT22;34289;48.572;13.378;2023-06-22T05:31:24;30.30;99.90
48488;DHT22;34289;48.572;13.378;2023-06-22T05:33:52;31.20;99.30
48488;DHT22;34289;48.572;13.378;2023-06-22T05:36:18;32.00;98.90
48488;DHT22;34289;48.572;13.378;2023-06-22T05:38:51;32.40;98.60
48488;DHT22;34289;48.572;13.378;2023-06-22T05:41:17;32.10;98.10
48488;DHT22;34289;48.572;13.378;2023-06-22T05:43:43;31.90;98.50
48488;DHT22;34289;48.572;13.378;2023-06-22T05:46:08;31.60;98.70
48488;DHT22;34289;48.572;13.378;2023-06-22T05:48:34;31.50;98.80
48488;DHT22;34289;48.572;13.378;2023-06-22T05:51:00;31.30;99.30
48488;DHT22;34289;48.572;13.378;2023-06-22T05:53:26;31.30;99.10
48488;DHT22;34289;48.572;13.378;2023-06-22T05:55:51;31.10;99.20
48488;DHT22;34289;48.572;13.378;2023-06-22T05:58:17;31.10;99.40
48488;DHT22;34289;48.572;13.378;2023-06-22T06:00:43;30.90;99.10
48488;DHT22;34289;48.572;13.378;2023-06-22T06:03:09;30.90;98.90
48488;DHT22;34289;48.572;13.378;2023-06-22T06:05:36;30.90;99.30
48488;DHT22;34289;48.572;13.378;2023-06-22T06:08:05;30.90;99.20
48488;DHT22;34289;48.572;13.378;2023-06-22T06:10:31;30.30;99.70
48488;DHT22;34289;48.572;13.378;2023-06-22T06:12:58;28.90;99.90
48488;DHT22;34289;48.572;13.378;2023-06-22T06:15:23;28.20;99.90
48488;DHT22;34289;48.572;13.378;2023-06-22T06:17:51;27.80;99.90
48488;DHT22;34289;48.572;13.378;2023-06-22T06:20:23;27.50;99.90
48488;DHT22;34289;48.572;13.378;2023-06-22T06:22:49;26.70;99.90
48488;DHT22;34289;48.572;13.378;2023-06-22T06:25:16;26.40;99.90
48488;DHT22;34289;48.572;13.378;2023-06-22T06:30:11;26.20;99.90
48488;DHT22;34289;48.572;13.378;2023-06-22T06:32:37;26.10;99.90
48488;DHT22;34289;48.572;13.378;2023-06-22T06:35:05;25.40;99.90
48488;DHT22;34289;48.572;13.378;2023-06-22T06:37:31;26.30;99.90
48488;DHT22;34289;48.572;13.378;2023-06-22T06:44:49;26.40;99.90
48488;DHT22;34289;48.572;13.378;2023-06-22T06:47:15;26.50;99.90
48488;DHT22;34289;48.572;13.378;2023-06-22T06:49:42;26.80;99.90
48488;DHT22;34289;48.572;13.378;2023-06-22T06:52:08;27.00;99.90
48488;DHT22;34289;48.572;13.378;2023-06-22T06:54:33;27.30;99.90
48488;DHT22;34289;48.572;13.378;2023-06-22T06:56:59;27.40;99.90
48488;DHT22;34289;48.572;13.378;2023-06-22T07:06:43;27.20;99.90
48488;DHT22;34289;48.572;13.378;2023-06-22T07:09:08;26.70;99.90
48488;DHT22;34289;48.572;13.378;2023-06-22T07:14:01;27.20;99.90
48488;DHT22;34289;48.572;13.378;2023-06-22T07:18:54;27.20;99.90
48488;DHT22;34289;48.572;13.378;2023-06-22T07:21:19;27.20;99.90
48488;DHT22;34289;48.572;13.378;2023-06-22T07:23:45;27.80;99.90
48488;DHT22;34289;48.572;13.378;2023-06-22T07:26:11;27.90;99.90
48488;DHT22;34289;48.572;13.378;2023-06-22T07:45:50;27.80;99.90
48488;DHT22;34289;48.572;13.378;2023-06-22T07:48:22;28.30;99.90
48488;DHT22;34289;48.572;13.378;2023-06-22T07:50:48;28.50;99.90
48488;DHT22;34289;48.572;13.378;2023-06-22T08:00:34;28.80;99.90
48488;DHT22;34289;48.572;13.378;2023-06-22T08:02:59;29.00;99.90
48488;DHT22;34289;48.572;13.378;2023-06-22T08:07:51;28.50;99.90
48488;DHT22;34289;48.572;13.378;2023-06-22T08:12:43;29.40;99.90
48488;DHT22;34289;48.572;13.378;2023-06-22T08:15:09;29.30;99.90
48488;DHT22;34289;48.572;13.378;2023-06-22T08:17:36;29.10;99.90
48488;DHT22;34289;48.572;13.378;2023-06-22T08:20:03;29.10;99.90
48488;DHT22;34289;48.572;13.378;2023-06-22T08:22:34;29.50;99.90
48488;DHT22;34289;48.572;13.378;2023-06-22T08:27:28;29.00;99.90
48488;DHT22;34289;48.572;13.378;2023-06-22T08:29:56;29.30;99.90
48488;DHT22;34289;48.572;13.378;2023-06-22T08:32:24;29.80;99.90
48488;DHT22;34289;48.572;13.378;2023-06-22T08:34:52;30.00;99.90
48488;DHT22;34289;48.572;13.378;2023-06-22T08:37:18;29.50;99.90
48488;DHT22;34289;48.572;13.378;2023-06-22T08:39:43;29.10;99.90
48488;DHT22;34289;48.572;13.378;2023-06-22T08:42:09;29.60;99.90
48488;DHT22;34289;48.572;13.378;2023-06-22T08:44:35;29.80;99.90
48488;DHT22;34289;48.572;13.378;2023-06-22T08:49:27;29.90;99.90
48488;DHT22;34289;48.572;13.378;2023-06-22T08:51:53;30.10;99.90
48488;DHT22;34289;48.572;13.378;2023-06-22T08:54:21;29.40;99.90
48488;DHT22;34289;48.572;13.378;2023-06-22T09:04:05;30.20;99.90
48488;DHT22;34289;48.572;13.378;2023-06-22T09:06:32;30.00;99.90
48488;DHT22;34289;48.572;13.378;2023-06-22T09:08:58;30.10;99.90
48488;DHT22;34289;48.572;13.378;2023-06-22T09:11:26;29.80;99.90
48488;DHT22;34289;48.572;13.378;2023-06-22T09:13:52;30.40;99.90
48488;DHT22;34289;48.572;13.378;2023-06-22T09:16:19;30.20;99.90
48488;DHT22;34289;48.572;13.378;2023-06-22T09:18:48;30.30;99.90
48488;DHT22;34289;48.572;13.378;2023-06-22T09:28:31;30.80;99.90
48488;DHT22;34289;48.572;13.378;2023-06-22T09:30:58;30.60;99.90
48488;DHT22;34289;48.572;13.378;2023-06-22T09:33:26;31.60;99.90
48488;DHT22;34289;48.572;13.378;2023-06-22T09:35:51;30.90;99.90
48488;DHT22;34289;48.572;13.378;2023-06-22T09:38:17;31.70;99.90
48488;DHT22;34289;48.572;13.378;2023-06-22T09:40:43;30.80;99.90
48488;DHT22;34289;48.572;13.378;2023-06-22T09:43:08;32.10;99.90
48488;DHT22;34289;48.572;13.378;2023-06-22T09:45:34;30.90;99.90
48488;DHT22;34289;48.572;13.378;2023-06-22T09:48:00;31.70;99.90
48488;DHT22;34289;48.572;13.378;2023-06-22T09:50:26;32.30;99.90
48488;DHT22;34289;48.572;13.378;2023-06-22T09:52:51;31.70;99.90
48488;DHT22;34289;48.572;13.378;2023-06-22T09:55:20;31.70;99.90
48488;DHT22;34289;48.572;13.378;2023-06-22T09:57:46;31.70;99.90
48488;DHT22;34289;48.572;13.378;2023-06-22T10:00:12;32.20;99.90
48488;DHT22;34289;48.572;13.378;2023-06-22T10:02:39;32.00;99.20
48488;DHT22;34289;48.572;13.378;2023-06-22T10:05:05;32.70;99.90
48488;DHT22;34289;48.572;13.378;2023-06-22T10:07:32;31.90;99.90
48488;DHT22;34289;48.572;13.378;2023-06-22T10:09:57;31.80;99.90
48488;DHT22;34289;48.572;13.378;2023-06-22T10:12:23;32.20;99.90
48488;DHT22;34289;48.572;13.378;2023-06-22T10:14:49;32.70;99.90
48488;DHT22;34289;48.572;13.378;2023-06-22T10:17:14;32.50;99.90
48488;DHT22;34289;48.572;13.378;2023-06-22T10:19:40;32.90;99.90
48488;DHT22;34289;48.572;13.378;2023-06-22T10:22:07;33.10;99.90
48488;DHT22;34289;48.572;13.378;2023-06-22T10:24:32;32.80;99.90
48488;DHT22;34289;48.572;13.378;2023-06-22T10:29:24;32.50;99.90
48488;DHT22;34289;48.572;13.378;2023-06-22T10:41:35;32.10;99.90
48488;DHT22;34289;48.572;13.378;2023-06-22T10:44:00;32.20;99.90
48488;DHT22;34289;48.572;13.378;2023-06-22T10:48:53;33.00;99.80
48488;DHT22;34289;48.572;13.378;2023-06-22T10:51:20;32.50;99.90
48488;DHT22;34289;48.572;13.378;2023-06-22T10:56:12;32.50;99.90
48488;DHT22;34289;48.572;13.378;2023-06-22T11:08:22;32.80;99.90
48488;DHT22;34289;48.572;13.378;2023-06-22T11:10:47;32.90;99.90
48488;DHT22;34289;48.572;13.378;2023-06-22T11:15:40;32.70;98.30
48488;DHT22;34289;48.572;13.378;2023-06-22T11:18:05;33.40;99.90
48488;DHT22;34289;48.572;13.378;2023-06-22T11:20:33;32.80;99.90
48488;DHT22;34289;48.572;13.378;2023-06-22T11:23:03;32.90;96.10
48488;DHT22;34289;48.572;13.378;2023-06-22T11:25:29;32.70;98.00
48488;DHT22;34289;48.572;13.378;2023-06-22T11:27:55;32.90;99.90
48488;DHT22;34289;48.572;13.378;2023-06-22T11:30:21;33.70;99.90
48488;DHT22;34289;48.572;13.378;2023-06-22T11:32:46;33.00;99.90
48488;DHT22;34289;48.572;13.378;2023-06-22T11:35:12;32.50;99.90
48488;DHT22;34289;48.572;13.378;2023-06-22T11:40:04;33.40;95.20
48488;DHT22;34289;48.572;13.378;2023-06-22T11:42:30;33.50;99.90
48488;DHT22;34289;48.572;13.378;2023-06-22T11:44:56;33.90;99.90
48488;DHT22;34289;48.572;13.378;2023-06-22T11:49:48;34.00;99.90
48488;DHT22;34289;48.572;13.378;2023-06-22T11:52:13;33.20;99.90
48488;DHT22;34289;48.572;13.378;2023-06-22T11:54:39;33.20;99.90
48488;DHT22;34289;48.572;13.378;2023-06-22T11:59:31;33.60;99.90
48488;DHT22;34289;48.572;13.378;2023-06-22T12:01:57;33.30;96.30
48488;DHT22;34289;48.572;13.378;2023-06-22T12:04:23;33.60;99.90
48488;DHT22;34289;48.572;13.378;2023-06-22T12:06:49;34.20;99.90
48488;DHT22;34289;48.572;13.378;2023-06-22T12:09:15;33.40;97.70
48488;DHT22;34289;48.572;13.378;2023-06-22T12:16:32;34.00;99.90
48488;DHT22;34289;48.572;13.378;2023-06-22T12:18:58;34.20;99.90
48488;DHT22;34289;48.572;13.378;2023-06-22T12:21:23;33.90;99.90
48488;DHT22;34289;48.572;13.378;2023-06-22T12:35:59;33.30;99.90
48488;DHT22;34289;48.572;13.378;2023-06-22T12:38:24;33.90;99.90
48488;DHT22;34289;48.572;13.378;2023-06-22T12:55:29;34.30;99.90
48488;DHT22;34289;48.572;13.378;2023-06-22T12:57:55;33.80;98.60
48488;DHT22;34289;48.572;13.378;2023-06-22T13:00:20;33.60;99.60
48488;DHT22;34289;48.572;13.378;2023-06-22T13:02:46;34.70;99.50
48488;DHT22;34289;48.572;13.378;2023-06-22T13:05:12;34.10;99.00
48488;DHT22;34289;48.572;13.378;2023-06-22T13:07:37;34.00;98.10
48488;DHT22;34289;48.572;13.378;2023-06-22T13:10:03;34.70;99.20
48488;DHT22;34289;48.572;13.378;2023-06-22T13:12:29;34.80;98.80
48488;DHT22;34289;48.572;13.378;2023-06-22T13:14:55;34.80;99.90
48488;DHT22;34289;48.572;13.378;2023-06-22T13:17:21;33.70;99.50
48488;DHT22;34289;48.572;13.378;2023-06-22T13:22:34;33.50;98.80
48488;DHT22;34289;48.572;13.378;2023-06-22T13:25:06;34.10;99.30
48488;DHT22;34289;48.572;13.378;2023-06-22T13:27:32;33.40;97.70
48488;DHT22;34289;48.572;13.378;2023-06-22T13:29:57;33.90;98.80
48488;DHT22;34289;48.572;13.378;2023-06-22T13:32:23;33.70;98.60
48488;DHT22;34289;48.572;13.378;2023-06-22T13:34:49;33.70;97.60
48488;DHT22;34289;48.572;13.378;2023-06-22T13:37:14;34.10;99.30
48488;DHT22;34289;48.572;13.378;2023-06-22T13:39:40;33.40;98.60
48488;DHT22;34289;48.572;13.378;2023-06-22T13:42:06;34.10;99.90
48488;DHT22;34289;48.572;13.378;2023-06-22T13:44:32;34.20;98.80
48488;DHT22;34289;48.572;13.378;2023-06-22T13:46:58;34.70;98.50
48488;DHT22;34289;48.572;13.378;2023-06-22T13:49:23;34.20;97.30
48488;DHT22;34289;48.572;13.378;2023-06-22T13:51:49;34.80;97.70
48488;DHT22;34289;48.572;13.378;2023-06-22T13:54:16;34.40;93.10
48488;DHT22;34289;48.572;13.378;2023-06-22T14:01:36;34.50;97.10
48488;DHT22;34289;48.572;13.378;2023-06-22T14:06:30;34.20;92.40
48488;DHT22;34289;48.572;13.378;2023-06-22T14:08:55;34.20;97.00
48488;DHT22;34289;48.572;13.378;2023-06-22T14:11:21;33.90;97.80
48488;DHT22;34289;48.572;13.378;2023-06-22T14:13:47;33.90;97.70
48488;DHT22;34289;48.572;13.378;2023-06-22T14:16:12;33.70;98.50
48488;DHT22;34289;48.572;13.378;2023-06-22T14:18:38;33.70;98.70
48488;DHT22;34289;48.572;13.378;2023-06-22T14:21:04;34.10;99.10
48488;DHT22;34289;48.572;13.378;2023-06-22T14:23:30;33.60;98.40
48488;DHT22;34289;48.572;13.378;2023-06-22T14:25:55;34.10;99.00
48488;DHT22;34289;48.572;13.378;2023-06-22T14:28:21;34.20;99.20
48488;DHT22;34289;48.572;13.378;2023-06-22T14:30:46;34.50;99.20
48488;DHT22;34289;48.572;13.378;2023-06-22T14:33:12;34.60;99.20
48488;DHT22;34289;48.572;13.378;2023-06-22T14:35:38;33.90;99.30
48488;DHT22;34289;48.572;13.378;2023-06-22T14:38:04;34.20;94.90
48488;DHT22;34289;48.572;13.378;2023-06-22T14:40:29;34.60;99.20
48488;DHT22;34289;48.572;13.378;2023-06-22T14:42:55;34.30;98.20
48488;DHT22;34289;48.572;13.378;2023-06-22T14:45:22;33.30;99.50
48488;DHT22;34289;48.572;13.378;2023-06-22T14:47:48;34.20;98.70
48488;DHT22;34289;48.572;13.378;2023-06-22T14:50:14;33.70;98.60
48488;DHT22;34289;48.572;13.378;2023-06-22T14:55:06;33.90;99.90
48488;DHT22;34289;48.572;13.378;2023-06-22T14:57:31;34.30;99.90
48488;DHT22;34289;48.572;13.378;2023-06-22T14:59:57;33.70;98.80
48488;DHT22;34289;48.572;13.378;2023-06-22T15:02:23;33.90;99.80
48488;DHT22;34289;48.572;13.378;2023-06-22T15:04:48;33.90;99.00
48488;DHT22;34289;48.572;13.378;2023-06-22T15:07:14;33.70;99.90
48488;DHT22;34289;48.572;13.378;2023-06-22T15:09:40;33.70;99.20
48488;DHT22;34289;48.572;13.378;2023-06-22T15:12:08;33.20;99.90
48488;DHT22;34289;48.572;13.378;2023-06-22T15:14:40;33.00;99.50
48488;DHT22;34289;48.572;13.378;2023-06-22T15:17:09;33.40;95.20
48488;DHT22;34289;48.572;13.378;2023-06-22T15:19:38;32.90;99.90
48488;DHT22;34289;48.572;13.378;2023-06-22T15:22:05;33.20;98.90
48488;DHT22;34289;48.572;13.378;2023-06-22T15:24:31;33.00;99.80
48488;DHT22;34289;48.572;13.378;2023-06-22T15:26:57;33.80;99.90
48488;DHT22;34289;48.572;13.378;2023-06-22T15:29:22;33.90;99.90
48488;DHT22;34289;48.572;13.378;2023-06-22T15:31:48;33.90;99.90
48488;DHT22;34289;48.572;13.378;2023-06-22T15:34:14;33.70;99.90
48488;DHT22;34289;48.572;13.378;2023-06-22T15:36:39;33.70;99.90
48488;DHT22;34289;48.572;13.378;2023-06-22T15:39:05;32.90;99.90
48488;DHT22;34289;48.572;13.378;2023-06-22T15:41:30;32.60;99.90
48488;DHT22;34289;48.572;13.378;2023-06-22T15:43:56;33.00;99.90
48488;DHT22;34289;48.572;13.378;2023-06-22T15:46:22;33.40;99.90
48488;DHT22;34289;48.572;13.378;2023-06-22T15:48:47;32.90;99.90
48488;DHT22;34289;48.572;13.378;2023-06-22T15:51:13;33.30;99.90
48488;DHT22;34289;48.572;13.378;2023-06-22T15:53:40;32.40;99.90
48488;DHT22;34289;48.572;13.378;2023-06-22T15:58:38;32.70;99.90
48488;DHT22;34289;48.572;13.378;2023-06-22T16:01:06;32.60;99.80
48488;DHT22;34289;48.572;13.378;2023-06-22T16:03:34;32.80;97.50
48488;DHT22;34289;48.572;13.378;2023-06-22T16:06:00;32.60;99.90
48488;DHT22;34289;48.572;13.378;2023-06-22T16:08:25;31.80;99.90
48488;DHT22;34289;48.572;13.378;2023-06-22T16:10:54;32.20;99.90
48488;DHT22;34289;48.572;13.378;2023-06-22T16:13:19;32.20;99.90
48488;DHT22;34289;48.572;13.378;2023-06-22T16:15:45;32.60;99.90
48488;DHT22;34289;48.572;13.378;2023-06-22T16:18:10;32.80;99.90
48488;DHT22;34289;48.572;13.378;2023-06-22T16:23:03;32.10;99.90
48488;DHT22;34289;48.572;13.378;2023-06-22T16:25:29;32.50;99.90
48488;DHT22;34289;48.572;13.378;2023-06-22T16:27:55;32.40;99.90
48488;DHT22;34289;48.572;13.378;2023-06-22T16:30:20;32.00;99.90
48488;DHT22;34289;48.572;13.378;2023-06-22T16:32:50;32.60;99.90
48488;DHT22;34289;48.572;13.378;2023-06-22T16:35:16;31.80;99.90
48488;DHT22;34289;48.572;13.378;2023-06-22T16:37:42;32.00;99.90
48488;DHT22;34289;48.572;13.378;2023-06-22T16:40:08;32.60;99.90
48488;DHT22;34289;48.572;13.378;2023-06-22T16:47:27;32.20;99.90
48488;DHT22;34289;48.572;13.378;2023-06-22T16:49:54;32.00;99.90
48488;DHT22;34289;48.572;13.378;2023-06-22T16:54:46;31.90;99.90
48488;DHT22;34289;48.572;13.378;2023-06-22T16:57:16;31.90;99.40
48488;DHT22;34289;48.572;13.378;2023-06-22T16:59:43;32.70;99.90
48488;DHT22;34289;48.572;13.378;2023-06-22T17:02:16;32.70;99.90
48488;DHT22;34289;48.572;13.378;2023-06-22T17:04:44;31.70;99.90
48488;DHT22;34289;48.572;13.378;2023-06-22T17:07:14;32.20;99.90
48488;DHT22;34289;48.572;13.378;2023-06-22T17:09:42;31.90;95.10
48488;DHT22;34289;48.572;13.378;2023-06-22T17:12:08;31.60;99.90
48488;DHT22;34289;48.572;13.378;2023-06-22T17:14:34;31.70;99.90
48488;DHT22;34289;48.572;13.378;2023-06-22T17:17:01;31.50;99.90
48488;DHT22;34289;48.572;13.378;2023-06-22T17:19:27;32.30;99.90
48488;DHT22;34289;48.572;13.378;2023-06-22T17:21:53;32.10;99.90
48488;DHT22;34289;48.572;13.378;2023-06-22T17:24:19;31.20;99.60
48488;DHT22;34289;48.572;13.378;2023-06-22T17:26:48;32.10;95.00
48488;DHT22;34289;48.572;13.378;2023-06-22T17:29:14;31.40;99.20
48488;DHT22;34289;48.572;13.378;2023-06-22T17:31:41;31.60;99.90
48488;DHT22;34289;48.572;13.378;2023-06-22T17:34:17;32.10;99.90
48488;DHT22;34289;48.572;13.378;2023-06-22T17:36:47;31.60;99.90
48488;DHT22;34289;48.572;13.378;2023-06-22T17:39:26;31.60;99.90
48488;DHT22;34289;48.572;13.378;2023-06-22T17:41:53;31.80;99.90
48488;DHT22;34289;48.572;13.378;2023-06-22T17:44:24;31.30;97.20
48488;DHT22;34289;48.572;13.378;2023-06-22T17:46:54;31.10;96.90
48488;DHT22;34289;48.572;13.378;2023-06-22T17:49:20;30.80;99.90
48488;DHT22;34289;48.572;13.378;2023-06-22T17:51:50;30.40;99.90
48488;DHT22;34289;48.572;13.378;2023-06-22T17:54:16;30.30;99.90
48488;DHT22;34289;48.572;13.378;2023-06-22T17:56:42;30.90;99.90
48488;DHT22;34289;48.572;13.378;2023-06-22T17:59:12;30.80;99.90
48488;DHT22;34289;48.572;13.378;2023-06-22T18:01:38;30.40;99.90
48488;DHT22;34289;48.572;13.378;2023-06-22T18:04:11;29.80;99.90
48488;DHT22;34289;48.572;13.378;2023-06-22T18:06:39;30.00;99.90
48488;DHT22;34289;48.572;13.378;2023-06-22T18:09:06;30.00;98.00
48488;DHT22;34289;48.572;13.378;2023-06-22T18:11:34;29.70;99.90
48488;DHT22;34289;48.572;13.378;2023-06-22T18:14:02;28.60;98.20
48488;DHT22;34289;48.572;13.378;2023-06-22T18:16:33;30.10;99.90
48488;DHT22;34289;48.572;13.378;2023-06-22T18:19:00;29.60;99.90
48488;DHT22;34289;48.572;13.378;2023-06-22T18:21:27;29.70;99.90
48488;DHT22;34289;48.572;13.378;2023-06-22T18:23:54;29.50;99.90
48488;DHT22;34289;48.572;13.378;2023-06-22T18:26:20;29.40;99.90
48488;DHT22;34289;48.572;13.378;2023-06-22T18:28:53;29.40;99.90
48488;DHT22;34289;48.572;13.378;2023-06-22T18:31:19;29.60;99.90
48488;DHT22;34289;48.572;13.378;2023-06-22T18:33:50;29.20;99.90
48488;DHT22;34289;48.572;13.378;2023-06-22T18:37:04;29.10;99.90
48488;DHT22;34289;48.572;13.378;2023-06-22T18:39:05;28.80;99.90
48488;DHT22;34289;48.572;13.378;2023-06-22T18:41:34;29.20;99.90
48488;DHT22;34289;48.572;13.378;2023-06-22T18:44:01;29.30;99.90
48488;DHT22;34289;48.572;13.378;2023-06-22T18:49:46;28.60;99.90
48488;DHT22;34289;48.572;13.378;2023-06-22T18:56:59;28.20;99.90
48488;DHT22;34289;48.572;13.378;2023-06-22T19:02:44;27.90;99.90
48488;DHT22;34289;48.572;13.378;2023-06-22T19:12:57;27.90;99.90
48488;DHT22;34289;48.572;13.378;2023-06-22T19:15:32;27.40;99.90
48488;DHT22;34289;48.572;13.378;2023-06-22T19:18:18;26.80;99.90
48488;DHT22;34289;48.572;13.378;2023-06-22T19:21:01;26.70;99.90
48488;DHT22;34289;48.572;13.378;2023-06-22T19:23:35;26.60;99.90